sensor_id;sensor_type;location;lat;lon;timestamp;P1;durP1;ratioP1;P2;durP2;ratioP2
16512;SDS011;8369;48.030;11.598;2023-08-21T00:00:29;7.38;;;6.68;;
16512;SDS011;8369;48.030;11.598;2023-08-21T00:02:55;7.93;;;6.93;;
16512;SDS011;8369;48.030;11.598;2023-08-21T00:05:21;8.35;;;7.38;;
16512;SDS011;8369;48.030;11.598;2023-08-21T00:07:47;7.00;;;6.30;;
16512;SDS011;8369;48.030;11.598;2023-08-21T00:10:16;9.02;;;6.78;;
16512;SDS011;8369;48.030;11.598;2023-08-21T00:12:42;8.40;;;6.85;;
16512;SDS011;8369;48.030;11.598;2023-08-21T00:15:08;8.57;;;6.47;;
16512;SDS011;8369;48.030;11.598;2023-08-21T00:17:35;7.53;;;6.82;;
16512;SDS011;8369;48.030;11.598;2023-08-21T00:20:00;7.95;;;7.13;;
16512;SDS011;8369;48.030;11.598;2023-08-21T00:22:27;10.35;;;7.07;;
16512;SDS011;8369;48.030;11.598;2023-08-21T00:24:53;7.78;;;6.35;;
16512;SDS011;8369;48.030;11.598;2023-08-21T00:27:19;8.18;;;7.00;;
16512;SDS011;8369;48.030;11.598;2023-08-21T00:29:45;8.05;;;7.25;;
16512;SDS011;8369;48.030;11.598;2023-08-21T00:32:10;7.20;;;6.50;;
16512;SDS011;8369;48.030;11.598;2023-08-21T00:34:37;10.27;;;6.60;;
16512;SDS011;8369;48.030;11.598;2023-08-21T00:37:03;7.22;;;6.53;;
16512;SDS011;8369;48.030;11.598;2023-08-21T00:39:32;7.20;;;6.50;;
16512;SDS011;8369;48.030;11.598;2023-08-21T00:42:01;7.13;;;6.43;;
16512;SDS011;8369;48.030;11.598;2023-08-21T00:44:27;8.88;;;6.72;;
16512;SDS011;8369;48.030;11.598;2023-08-21T00:46:53;9.30;;;6.97;;
16512;SDS011;8369;48.030;11.598;2023-08-21T00:49:19;7.88;;;6.15;;
16512;SDS011;8369;48.030;11.598;2023-08-21T00:51:46;10.57;;;7.53;;
16512;SDS011;8369;48.030;11.598;2023-08-21T00:54:13;9.55;;;6.68;;
16512;SDS011;8369;48.030;11.598;2023-08-21T00:56:42;7.53;;;6.32;;
16512;SDS011;8369;48.030;11.598;2023-08-21T00:59:12;8.98;;;6.95;;
16512;SDS011;8369;48.030;11.598;2023-08-21T01:01:42;9.52;;;6.93;;
16512;SDS011;8369;48.030;11.598;2023-08-21T01:04:20;7.93;;;6.60;;
16512;SDS011;8369;48.030;11.598;2023-08-21T01:06:47;7.63;;;6.82;;
16512;SDS011;8369;48.030;11.598;2023-08-21T01:14:46;7.85;;;6.50;;
16512;SDS011;8369;48.030;11.598;2023-08-21T01:17:31;7.05;;;6.22;;
16512;SDS011;8369;48.030;11.598;2023-08-21T01:20:02;7.38;;;6.68;;
16512;SDS011;8369;48.030;11.598;2023-08-21T01:22:35;8.15;;;6.82;;
16512;SDS011;8369;48.030;11.598;2023-08-21T01:25:03;7.63;;;6.20;;
16512;SDS011;8369;48.030;11.598;2023-08-21T01:27:33;8.85;;;6.32;;
16512;SDS011;8369;48.030;11.598;2023-08-21T01:30:00;9.45;;;6.93;;
16512;SDS011;8369;48.030;11.598;2023-08-21T01:32:33;7.95;;;6.68;;
16512;SDS011;8369;48.030;11.598;2023-08-21T01:35:27;7.13;;;6.07;;
16512;SDS011;8369;48.030;11.598;2023-08-21T01:37:54;6.90;;;6.18;;
16512;SDS011;8369;48.030;11.598;2023-08-21T01:40:28;6.80;;;6.07;;
16512;SDS011;8369;48.030;11.598;2023-08-21T01:42:54;8.02;;;6.50;;
16512;SDS011;8369;48.030;11.598;2023-08-21T01:45:21;6.82;;;6.13;;
16512;SDS011;8369;48.030;11.598;2023-08-21T01:47:47;6.47;;;5.78;;
16512;SDS011;8369;48.030;11.598;2023-08-21T01:50:13;7.18;;;6.25;;
16512;SDS011;8369;48.030;11.598;2023-08-21T01:52:39;7.13;;;6.43;;
16512;SDS011;8369;48.030;11.598;2023-08-21T01:55:05;7.53;;;6.15;;
16512;SDS011;8369;48.030;11.598;2023-08-21T01:57:35;7.53;;;6.40;;
16512;SDS011;8369;48.030;11.598;2023-08-21T02:00:01;7.28;;;6.47;;
16512;SDS011;8369;48.030;11.598;2023-08-21T02:02:30;7.70;;;6.57;;
16512;SDS011;8369;48.030;11.598;2023-08-21T02:04:56;7.78;;;6.30;;
16512;SDS011;8369;48.030;11.598;2023-08-21T02:07:22;8.15;;;6.80;;
16512;SDS011;8369;48.030;11.598;2023-08-21T02:09:48;8.80;;;6.50;;
16512;SDS011;8369;48.030;11.598;2023-08-21T02:12:13;8.02;;;6.25;;
16512;SDS011;8369;48.030;11.598;2023-08-21T02:14:39;7.38;;;5.97;;
16512;SDS011;8369;48.030;11.598;2023-08-21T02:17:05;9.48;;;6.80;;
16512;SDS011;8369;48.030;11.598;2023-08-21T02:19:31;8.13;;;6.68;;
16512;SDS011;8369;48.030;11.598;2023-08-21T02:21:57;7.22;;;6.53;;
16512;SDS011;8369;48.030;11.598;2023-08-21T02:24:23;7.72;;;6.07;;
16512;SDS011;8369;48.030;11.598;2023-08-21T02:26:52;7.68;;;6.63;;
16512;SDS011;8369;48.030;11.598;2023-08-21T02:29:18;7.32;;;6.63;;
16512;SDS011;8369;48.030;11.598;2023-08-21T02:31:44;7.10;;;6.40;;
16512;SDS011;8369;48.030;11.598;2023-08-21T02:34:09;7.63;;;6.82;;
16512;SDS011;8369;48.030;11.598;2023-08-21T02:36:36;7.53;;;6.82;;
16512;SDS011;8369;48.030;11.598;2023-08-21T02:39:02;9.60;;;6.93;;
16512;SDS011;8369;48.030;11.598;2023-08-21T02:41:30;6.90;;;6.00;;
16512;SDS011;8369;48.030;11.598;2023-08-21T02:43:56;7.50;;;5.70;;
16512;SDS011;8369;48.030;11.598;2023-08-21T02:46:22;6.93;;;6.00;;
16512;SDS011;8369;48.030;11.598;2023-08-21T02:48:48;7.07;;;6.45;;
16512;SDS011;8369;48.030;11.598;2023-08-21T02:51:15;6.88;;;6.18;;
16512;SDS011;8369;48.030;11.598;2023-08-21T02:53:44;8.13;;;6.22;;
16512;SDS011;8369;48.030;11.598;2023-08-21T02:56:10;6.40;;;5.80;;
16512;SDS011;8369;48.030;11.598;2023-08-21T02:58:39;6.57;;;5.82;;
16512;SDS011;8369;48.030;11.598;2023-08-21T03:01:07;6.22;;;5.63;;
16512;SDS011;8369;48.030;11.598;2023-08-21T03:03:33;7.65;;;6.38;;
16512;SDS011;8369;48.030;11.598;2023-08-21T03:06:05;6.82;;;5.85;;
16512;SDS011;8369;48.030;11.598;2023-08-21T03:08:31;6.30;;;5.70;;
16512;SDS011;8369;48.030;11.598;2023-08-21T03:10:57;7.90;;;5.85;;
16512;SDS011;8369;48.030;11.598;2023-08-21T03:13:23;7.05;;;6.25;;
16512;SDS011;8369;48.030;11.598;2023-08-21T03:15:50;6.75;;;5.88;;
16512;SDS011;8369;48.030;11.598;2023-08-21T03:18:16;6.18;;;5.57;;
16512;SDS011;8369;48.030;11.598;2023-08-21T03:20:45;8.77;;;6.03;;
16512;SDS011;8369;48.030;11.598;2023-08-21T03:23:11;8.13;;;6.30;;
16512;SDS011;8369;48.030;11.598;2023-08-21T03:25:40;12.27;;;7.72;;
16512;SDS011;8369;48.030;11.598;2023-08-21T03:28:06;9.18;;;7.28;;
16512;SDS011;8369;48.030;11.598;2023-08-21T03:30:34;10.15;;;8.02;;
16512;SDS011;8369;48.030;11.598;2023-08-21T03:33:03;10.55;;;8.05;;
16512;SDS011;8369;48.030;11.598;2023-08-21T03:35:30;8.82;;;7.85;;
16512;SDS011;8369;48.030;11.598;2023-08-21T03:37:55;10.85;;;7.70;;
16512;SDS011;8369;48.030;11.598;2023-08-21T03:40:24;12.05;;;6.50;;
16512;SDS011;8369;48.030;11.598;2023-08-21T03:42:50;6.97;;;6.28;;
16512;SDS011;8369;48.030;11.598;2023-08-21T03:45:17;7.53;;;5.78;;
16512;SDS011;8369;48.030;11.598;2023-08-21T03:47:42;7.07;;;6.38;;
16512;SDS011;8369;48.030;11.598;2023-08-21T03:50:09;7.15;;;5.75;;
16512;SDS011;8369;48.030;11.598;2023-08-21T03:52:35;7.22;;;5.75;;
16512;SDS011;8369;48.030;11.598;2023-08-21T03:55:01;7.05;;;5.75;;
16512;SDS011;8369;48.030;11.598;2023-08-21T03:57:28;6.93;;;6.07;;
16512;SDS011;8369;48.030;11.598;2023-08-21T03:59:54;8.45;;;5.72;;
16512;SDS011;8369;48.030;11.598;2023-08-21T04:02:19;6.55;;;5.70;;
16512;SDS011;8369;48.030;11.598;2023-08-21T04:04:45;7.05;;;6.00;;
16512;SDS011;8369;48.030;11.598;2023-08-21T04:07:12;6.95;;;5.85;;
16512;SDS011;8369;48.030;11.598;2023-08-21T04:09:38;8.45;;;6.22;;
16512;SDS011;8369;48.030;11.598;2023-08-21T04:12:04;7.82;;;6.38;;
16512;SDS011;8369;48.030;11.598;2023-08-21T04:14:30;7.72;;;6.10;;
16512;SDS011;8369;48.030;11.598;2023-08-21T04:16:58;6.68;;;6.00;;
16512;SDS011;8369;48.030;11.598;2023-08-21T04:19:24;7.30;;;6.03;;
16512;SDS011;8369;48.030;11.598;2023-08-21T04:21:55;7.20;;;6.50;;
16512;SDS011;8369;48.030;11.598;2023-08-21T04:24:21;7.75;;;6.43;;
16512;SDS011;8369;48.030;11.598;2023-08-21T04:26:47;7.60;;;6.47;;
16512;SDS011;8369;48.030;11.598;2023-08-21T04:29:14;7.55;;;6.18;;
16512;SDS011;8369;48.030;11.598;2023-08-21T04:31:39;9.30;;;6.18;;
16512;SDS011;8369;48.030;11.598;2023-08-21T04:34:05;7.72;;;6.05;;
16512;SDS011;8369;48.030;11.598;2023-08-21T04:36:31;6.50;;;5.90;;
16512;SDS011;8369;48.030;11.598;2023-08-21T04:38:57;10.93;;;6.50;;
16512;SDS011;8369;48.030;11.598;2023-08-21T04:41:23;9.18;;;6.53;;
16512;SDS011;8369;48.030;11.598;2023-08-21T04:43:50;7.40;;;6.65;;
16512;SDS011;8369;48.030;11.598;2023-08-21T04:46:19;8.23;;;6.05;;
16512;SDS011;8369;48.030;11.598;2023-08-21T04:48:45;15.10;;;6.78;;
16512;SDS011;8369;48.030;11.598;2023-08-21T04:51:11;9.02;;;6.88;;
16512;SDS011;8369;48.030;11.598;2023-08-21T04:53:37;8.60;;;6.38;;
16512;SDS011;8369;48.030;11.598;2023-08-21T04:56:04;7.80;;;6.28;;
16512;SDS011;8369;48.030;11.598;2023-08-21T04:58:31;8.82;;;6.57;;
16512;SDS011;8369;48.030;11.598;2023-08-21T05:00:56;7.15;;;6.43;;
16512;SDS011;8369;48.030;11.598;2023-08-21T05:03:26;10.57;;;6.47;;
16512;SDS011;8369;48.030;11.598;2023-08-21T05:05:57;8.88;;;6.22;;
16512;SDS011;8369;48.030;11.598;2023-08-21T05:08:51;9.98;;;6.13;;
16512;SDS011;8369;48.030;11.598;2023-08-21T05:11:50;10.23;;;6.05;;
16512;SDS011;8369;48.030;11.598;2023-08-21T05:19:36;9.35;;;5.88;;
16512;SDS011;8369;48.030;11.598;2023-08-21T05:23:10;7.78;;;5.93;;
16512;SDS011;8369;48.030;11.598;2023-08-21T05:30:06;6.18;;;5.57;;
16512;SDS011;8369;48.030;11.598;2023-08-21T05:37:11;6.97;;;5.25;;
16512;SDS011;8369;48.030;11.598;2023-08-21T05:40:16;9.50;;;6.03;;
16512;SDS011;8369;48.030;11.598;2023-08-21T06:21:12;8.25;;;5.63;;
16512;SDS011;8369;48.030;11.598;2023-08-21T06:23:38;5.95;;;5.35;;
16512;SDS011;8369;48.030;11.598;2023-08-21T06:26:04;6.85;;;5.57;;
16512;SDS011;8369;48.030;11.598;2023-08-21T06:28:30;9.25;;;5.60;;
16512;SDS011;8369;48.030;11.598;2023-08-21T06:30:56;6.93;;;5.63;;
16512;SDS011;8369;48.030;11.598;2023-08-21T06:33:29;6.93;;;5.70;;
16512;SDS011;8369;48.030;11.598;2023-08-21T06:35:55;6.60;;;5.50;;
16512;SDS011;8369;48.030;11.598;2023-08-21T06:38:21;7.65;;;5.55;;
16512;SDS011;8369;48.030;11.598;2023-08-21T06:40:47;7.53;;;5.63;;
16512;SDS011;8369;48.030;11.598;2023-08-21T06:43:12;5.70;;;5.13;;
16512;SDS011;8369;48.030;11.598;2023-08-21T06:45:38;10.02;;;5.60;;
16512;SDS011;8369;48.030;11.598;2023-08-21T06:48:04;9.57;;;5.50;;
16512;SDS011;8369;48.030;11.598;2023-08-21T06:50:30;8.50;;;5.70;;
16512;SDS011;8369;48.030;11.598;2023-08-21T06:53:05;5.57;;;5.07;;
16512;SDS011;8369;48.030;11.598;2023-08-21T06:55:31;7.68;;;5.05;;
16512;SDS011;8369;48.030;11.598;2023-08-21T06:57:57;8.73;;;5.85;;
16512;SDS011;8369;48.030;11.598;2023-08-21T07:00:23;6.85;;;5.25;;
16512;SDS011;8369;48.030;11.598;2023-08-21T07:02:49;9.07;;;6.00;;
16512;SDS011;8369;48.030;11.598;2023-08-21T07:05:15;9.80;;;5.78;;
16512;SDS011;8369;48.030;11.598;2023-08-21T07:07:41;7.05;;;5.40;;
16512;SDS011;8369;48.030;11.598;2023-08-21T07:10:07;8.07;;;5.00;;
16512;SDS011;8369;48.030;11.598;2023-08-21T07:12:33;8.75;;;5.60;;
16512;SDS011;8369;48.030;11.598;2023-08-21T07:14:59;6.80;;;5.65;;
16512;SDS011;8369;48.030;11.598;2023-08-21T07:17:25;8.32;;;5.53;;
16512;SDS011;8369;48.030;11.598;2023-08-21T07:19:51;9.93;;;6.30;;
16512;SDS011;8369;48.030;11.598;2023-08-21T07:22:18;9.45;;;5.63;;
16512;SDS011;8369;48.030;11.598;2023-08-21T07:24:46;6.80;;;5.65;;
16512;SDS011;8369;48.030;11.598;2023-08-21T07:27:13;9.30;;;5.50;;
16512;SDS011;8369;48.030;11.598;2023-08-21T07:29:39;10.45;;;5.63;;
16512;SDS011;8369;48.030;11.598;2023-08-21T07:32:05;5.90;;;5.30;;
16512;SDS011;8369;48.030;11.598;2023-08-21T07:34:30;6.35;;;5.45;;
16512;SDS011;8369;48.030;11.598;2023-08-21T07:36:57;6.50;;;5.90;;
16512;SDS011;8369;48.030;11.598;2023-08-21T07:39:23;9.18;;;6.97;;
16512;SDS011;8369;48.030;11.598;2023-08-21T07:41:49;9.57;;;5.82;;
16512;SDS011;8369;48.030;11.598;2023-08-21T07:44:14;7.75;;;6.18;;
16512;SDS011;8369;48.030;11.598;2023-08-21T07:46:40;8.27;;;5.97;;
16512;SDS011;8369;48.030;11.598;2023-08-21T07:49:09;6.40;;;5.75;;
16512;SDS011;8369;48.030;11.598;2023-08-21T07:51:37;8.98;;;5.90;;
16512;SDS011;8369;48.030;11.598;2023-08-21T07:54:03;9.02;;;5.75;;
16512;SDS011;8369;48.030;11.598;2023-08-21T07:56:29;10.07;;;6.10;;
16512;SDS011;8369;48.030;11.598;2023-08-21T07:58:55;8.05;;;6.25;;
16512;SDS011;8369;48.030;11.598;2023-08-21T08:01:20;6.88;;;5.50;;
16512;SDS011;8369;48.030;11.598;2023-08-21T08:03:46;6.30;;;5.70;;
16512;SDS011;8369;48.030;11.598;2023-08-21T08:06:12;10.80;;;6.10;;
16512;SDS011;8369;48.030;11.598;2023-08-21T08:08:39;7.68;;;5.93;;
16512;SDS011;8369;48.030;11.598;2023-08-21T08:11:04;6.50;;;5.75;;
16512;SDS011;8369;48.030;11.598;2023-08-21T08:13:31;8.95;;;6.13;;
16512;SDS011;8369;48.030;11.598;2023-08-21T08:15:57;6.57;;;5.82;;
16512;SDS011;8369;48.030;11.598;2023-08-21T08:18:23;9.80;;;6.00;;
16512;SDS011;8369;48.030;11.598;2023-08-21T08:20:49;9.90;;;6.05;;
16512;SDS011;8369;48.030;11.598;2023-08-21T08:23:19;7.95;;;6.35;;
16512;SDS011;8369;48.030;11.598;2023-08-21T08:25:45;7.20;;;6.15;;
16512;SDS011;8369;48.030;11.598;2023-08-21T08:28:10;6.20;;;5.57;;
16512;SDS011;8369;48.030;11.598;2023-08-21T08:30:36;7.30;;;5.70;;
16512;SDS011;8369;48.030;11.598;2023-08-21T08:33:04;7.40;;;6.22;;
16512;SDS011;8369;48.030;11.598;2023-08-21T08:35:33;10.18;;;6.13;;
16512;SDS011;8369;48.030;11.598;2023-08-21T08:38:02;7.85;;;5.88;;
16512;SDS011;8369;48.030;11.598;2023-08-21T08:40:48;8.70;;;6.45;;
16512;SDS011;8369;48.030;11.598;2023-08-21T08:43:17;7.82;;;6.05;;
16512;SDS011;8369;48.030;11.598;2023-08-21T08:45:44;8.80;;;7.35;;
16512;SDS011;8369;48.030;11.598;2023-08-21T08:48:12;11.35;;;6.13;;
16512;SDS011;8369;48.030;11.598;2023-08-21T08:50:38;7.28;;;6.32;;
16512;SDS011;8369;48.030;11.598;2023-08-21T08:53:05;6.90;;;6.20;;
16512;SDS011;8369;48.030;11.598;2023-08-21T08:55:32;6.35;;;5.47;;
16512;SDS011;8369;48.030;11.598;2023-08-21T08:57:58;6.72;;;6.13;;
16512;SDS011;8369;48.030;11.598;2023-08-21T09:00:24;8.20;;;5.80;;
16512;SDS011;8369;48.030;11.598;2023-08-21T09:02:51;7.03;;;5.97;;
16512;SDS011;8369;48.030;11.598;2023-08-21T09:05:17;7.30;;;6.40;;
16512;SDS011;8369;48.030;11.598;2023-08-21T09:07:43;7.70;;;6.18;;
16512;SDS011;8369;48.030;11.598;2023-08-21T09:10:13;6.30;;;5.70;;
16512;SDS011;8369;48.030;11.598;2023-08-21T09:12:41;6.65;;;5.93;;
16512;SDS011;8369;48.030;11.598;2023-08-21T09:15:09;6.65;;;5.78;;
16512;SDS011;8369;48.030;11.598;2023-08-21T09:17:36;6.72;;;5.93;;
16512;SDS011;8369;48.030;11.598;2023-08-21T09:20:05;6.40;;;5.80;;
16512;SDS011;8369;48.030;11.598;2023-08-21T09:22:32;5.90;;;5.30;;
16512;SDS011;8369;48.030;11.598;2023-08-21T09:27:39;7.85;;;5.93;;
16512;SDS011;8369;48.030;11.598;2023-08-21T09:30:06;6.18;;;5.55;;
16512;SDS011;8369;48.030;11.598;2023-08-21T09:32:51;6.38;;;5.70;;
16512;SDS011;8369;48.030;11.598;2023-08-21T09:35:21;6.60;;;5.78;;
16512;SDS011;8369;48.030;11.598;2023-08-21T09:37:48;5.85;;;5.35;;
16512;SDS011;8369;48.030;11.598;2023-08-21T09:40:14;6.30;;;5.50;;
16512;SDS011;8369;48.030;11.598;2023-08-21T09:42:41;6.20;;;5.60;;
16512;SDS011;8369;48.030;11.598;2023-08-21T09:45:07;6.22;;;5.63;;
16512;SDS011;8369;48.030;11.598;2023-08-21T09:47:33;7.13;;;6.38;;
16512;SDS011;8369;48.030;11.598;2023-08-21T09:50:00;6.07;;;4.72;;
16512;SDS011;8369;48.030;11.598;2023-08-21T09:52:26;9.85;;;4.80;;
16512;SDS011;8369;48.030;11.598;2023-08-21T09:54:53;5.32;;;4.82;;
16512;SDS011;8369;48.030;11.598;2023-08-21T09:57:26;5.63;;;5.05;;
16512;SDS011;8369;48.030;11.598;2023-08-21T09:59:53;7.85;;;5.25;;
16512;SDS011;8369;48.030;11.598;2023-08-21T10:02:22;5.45;;;4.97;;
16512;SDS011;8369;48.030;11.598;2023-08-21T10:04:49;5.13;;;4.63;;
16512;SDS011;8369;48.030;11.598;2023-08-21T10:07:19;5.72;;;4.43;;
16512;SDS011;8369;48.030;11.598;2023-08-21T10:09:47;4.63;;;4.22;;
16512;SDS011;8369;48.030;11.598;2023-08-21T10:12:14;5.20;;;4.65;;
16512;SDS011;8369;48.030;11.598;2023-08-21T10:14:41;4.85;;;4.30;;
16512;SDS011;8369;48.030;11.598;2023-08-21T10:17:08;4.55;;;4.15;;
16512;SDS011;8369;48.030;11.598;2023-08-21T10:19:37;5.70;;;4.80;;
16512;SDS011;8369;48.030;11.598;2023-08-21T10:22:03;5.45;;;4.70;;
16512;SDS011;8369;48.030;11.598;2023-08-21T10:24:38;6.15;;;5.55;;
16512;SDS011;8369;48.030;11.598;2023-08-21T10:27:04;7.95;;;4.90;;
16512;SDS011;8369;48.030;11.598;2023-08-21T10:29:32;6.03;;;5.00;;
16512;SDS011;8369;48.030;11.598;2023-08-21T10:31:59;6.53;;;4.75;;
16512;SDS011;8369;48.030;11.598;2023-08-21T10:34:30;6.18;;;5.45;;
16512;SDS011;8369;48.030;11.598;2023-08-21T10:37:12;7.05;;;5.68;;
16512;SDS011;8369;48.030;11.598;2023-08-21T10:39:53;7.45;;;5.32;;
16512;SDS011;8369;48.030;11.598;2023-08-21T10:42:37;7.20;;;5.28;;
16512;SDS011;8369;48.030;11.598;2023-08-21T10:45:11;5.72;;;4.82;;
16512;SDS011;8369;48.030;11.598;2023-08-21T10:47:37;7.68;;;5.28;;
16512;SDS011;8369;48.030;11.598;2023-08-21T10:50:04;5.30;;;4.85;;
16512;SDS011;8369;48.030;11.598;2023-08-21T10:52:36;5.22;;;4.72;;
16512;SDS011;8369;48.030;11.598;2023-08-21T10:55:03;5.32;;;4.43;;
16512;SDS011;8369;48.030;11.598;2023-08-21T10:57:30;6.93;;;4.70;;
16512;SDS011;8369;48.030;11.598;2023-08-21T10:59:57;5.50;;;5.00;;
16512;SDS011;8369;48.030;11.598;2023-08-21T11:02:25;5.43;;;4.93;;
16512;SDS011;8369;48.030;11.598;2023-08-21T11:04:55;8.43;;;5.13;;
16512;SDS011;8369;48.030;11.598;2023-08-21T11:07:21;5.60;;;5.10;;
16512;SDS011;8369;48.030;11.598;2023-08-21T11:09:48;5.80;;;5.13;;
16512;SDS011;8369;48.030;11.598;2023-08-21T11:12:15;6.63;;;5.22;;
16512;SDS011;8369;48.030;11.598;2023-08-21T11:14:46;5.60;;;4.78;;
16512;SDS011;8369;48.030;11.598;2023-08-21T11:17:13;5.85;;;5.35;;
16512;SDS011;8369;48.030;11.598;2023-08-21T11:19:39;6.43;;;5.70;;
16512;SDS011;8369;48.030;11.598;2023-08-21T11:22:06;6.22;;;4.90;;
16512;SDS011;8369;48.030;11.598;2023-08-21T11:27:07;6.07;;;5.30;;
16512;SDS011;8369;48.030;11.598;2023-08-21T11:29:47;5.90;;;5.10;;
16512;SDS011;8369;48.030;11.598;2023-08-21T11:34:48;6.45;;;5.30;;
16512;SDS011;8369;48.030;11.598;2023-08-21T11:37:16;5.95;;;5.45;;
16512;SDS011;8369;48.030;11.598;2023-08-21T11:39:50;7.20;;;5.70;;
16512;SDS011;8369;48.030;11.598;2023-08-21T11:42:21;8.52;;;5.57;;
16512;SDS011;8369;48.030;11.598;2023-08-21T11:44:53;6.28;;;5.68;;
16512;SDS011;8369;48.030;11.598;2023-08-21T11:47:20;5.38;;;4.88;;
16512;SDS011;8369;48.030;11.598;2023-08-21T11:49:46;6.10;;;5.53;;
16512;SDS011;8369;48.030;11.598;2023-08-21T11:52:17;7.22;;;5.93;;
16512;SDS011;8369;48.030;11.598;2023-08-21T11:54:51;7.00;;;6.20;;
16512;SDS011;8369;48.030;11.598;2023-08-21T11:57:19;7.35;;;6.03;;
16512;SDS011;8369;48.030;11.598;2023-08-21T11:59:52;7.47;;;6.10;;
16512;SDS011;8369;48.030;11.598;2023-08-21T12:02:26;6.47;;;5.88;;
16512;SDS011;8369;48.030;11.598;2023-08-21T12:05:14;6.50;;;5.70;;
16512;SDS011;8369;48.030;11.598;2023-08-21T12:07:39;5.93;;;5.32;;
16512;SDS011;8369;48.030;11.598;2023-08-21T12:10:05;11.25;;;5.60;;
16512;SDS011;8369;48.030;11.598;2023-08-21T12:12:31;5.88;;;5.38;;
16512;SDS011;8369;48.030;11.598;2023-08-21T12:14:57;9.10;;;6.28;;
16512;SDS011;8369;48.030;11.598;2023-08-21T12:17:23;10.02;;;6.10;;
16512;SDS011;8369;48.030;11.598;2023-08-21T12:19:48;5.85;;;5.35;;
16512;SDS011;8369;48.030;11.598;2023-08-21T12:22:14;5.90;;;5.35;;
16512;SDS011;8369;48.030;11.598;2023-08-21T12:24:40;6.45;;;5.65;;
16512;SDS011;8369;48.030;11.598;2023-08-21T12:27:06;6.45;;;5.38;;
16512;SDS011;8369;48.030;11.598;2023-08-21T12:29:32;5.72;;;5.22;;
16512;SDS011;8369;48.030;11.598;2023-08-21T12:31:57;7.32;;;5.47;;
16512;SDS011;8369;48.030;11.598;2023-08-21T12:34:23;8.38;;;5.03;;
16512;SDS011;8369;48.030;11.598;2023-08-21T12:36:52;6.13;;;5.43;;
16512;SDS011;8369;48.030;11.598;2023-08-21T12:39:17;5.93;;;5.35;;
16512;SDS011;8369;48.030;11.598;2023-08-21T12:41:46;6.80;;;5.13;;
16512;SDS011;8369;48.030;11.598;2023-08-21T12:44:12;5.85;;;5.30;;
16512;SDS011;8369;48.030;11.598;2023-08-21T12:46:38;7.90;;;5.68;;
16512;SDS011;8369;48.030;11.598;2023-08-21T12:49:04;8.43;;;5.60;;
16512;SDS011;8369;48.030;11.598;2023-08-21T12:51:30;8.32;;;6.00;;
16512;SDS011;8369;48.030;11.598;2023-08-21T12:53:55;7.30;;;5.60;;
16512;SDS011;8369;48.030;11.598;2023-08-21T12:56:22;7.40;;;5.63;;
16512;SDS011;8369;48.030;11.598;2023-08-21T12:58:47;5.88;;;5.25;;
16512;SDS011;8369;48.030;11.598;2023-08-21T13:01:13;9.13;;;5.43;;
16512;SDS011;8369;48.030;11.598;2023-08-21T13:03:43;9.80;;;5.13;;
16512;SDS011;8369;48.030;11.598;2023-08-21T13:06:10;6.25;;;5.45;;
16512;SDS011;8369;48.030;11.598;2023-08-21T13:08:35;6.35;;;5.75;;
16512;SDS011;8369;48.030;11.598;2023-08-21T13:11:01;7.10;;;5.95;;
16512;SDS011;8369;48.030;11.598;2023-08-21T13:13:28;6.20;;;5.43;;
16512;SDS011;8369;48.030;11.598;2023-08-21T13:15:54;7.93;;;5.03;;
16512;SDS011;8369;48.030;11.598;2023-08-21T13:18:20;8.57;;;6.15;;
16512;SDS011;8369;48.030;11.598;2023-08-21T13:20:46;5.97;;;5.13;;
16512;SDS011;8369;48.030;11.598;2023-08-21T13:23:13;6.20;;;5.60;;
16512;SDS011;8369;48.030;11.598;2023-08-21T13:25:39;5.82;;;5.18;;
16512;SDS011;8369;48.030;11.598;2023-08-21T13:28:05;6.07;;;5.50;;
16512;SDS011;8369;48.030;11.598;2023-08-21T13:30:31;7.30;;;5.68;;
16512;SDS011;8369;48.030;11.598;2023-08-21T13:32:57;7.65;;;5.80;;
16512;SDS011;8369;48.030;11.598;2023-08-21T13:35:23;5.47;;;4.97;;
16512;SDS011;8369;48.030;11.598;2023-08-21T13:37:49;8.43;;;6.07;;
16512;SDS011;8369;48.030;11.598;2023-08-21T13:40:15;10.00;;;5.43;;
16512;SDS011;8369;48.030;11.598;2023-08-21T13:42:44;8.40;;;5.45;;
16512;SDS011;8369;48.030;11.598;2023-08-21T13:45:13;7.15;;;5.57;;
16512;SDS011;8369;48.030;11.598;2023-08-21T13:47:40;8.05;;;5.05;;
16512;SDS011;8369;48.030;11.598;2023-08-21T13:50:12;8.13;;;5.30;;
16512;SDS011;8369;48.030;11.598;2023-08-21T13:52:39;6.85;;;5.85;;
16512;SDS011;8369;48.030;11.598;2023-08-21T13:55:08;10.35;;;5.82;;
16512;SDS011;8369;48.030;11.598;2023-08-21T13:57:37;6.53;;;5.45;;
16512;SDS011;8369;48.030;11.598;2023-08-21T14:00:04;5.72;;;5.13;;
16512;SDS011;8369;48.030;11.598;2023-08-21T14:02:36;7.07;;;5.40;;
16512;SDS011;8369;48.030;11.598;2023-08-21T14:05:06;5.85;;;5.28;;
16512;SDS011;8369;48.030;11.598;2023-08-21T14:07:33;9.27;;;5.60;;
16512;SDS011;8369;48.030;11.598;2023-08-21T14:09:59;6.38;;;5.68;;
16512;SDS011;8369;48.030;11.598;2023-08-21T14:12:27;7.18;;;5.30;;
16512;SDS011;8369;48.030;11.598;2023-08-21T14:17:39;6.38;;;5.70;;
16512;SDS011;8369;48.030;11.598;2023-08-21T14:20:05;9.48;;;5.38;;
16512;SDS011;8369;48.030;11.598;2023-08-21T14:22:32;8.95;;;5.63;;
16512;SDS011;8369;48.030;11.598;2023-08-21T14:24:58;15.40;;;5.78;;
16512;SDS011;8369;48.030;11.598;2023-08-21T14:27:24;5.50;;;4.95;;
16512;SDS011;8369;48.030;11.598;2023-08-21T14:29:52;7.60;;;5.18;;
16512;SDS011;8369;48.030;11.598;2023-08-21T14:32:18;5.47;;;4.97;;
16512;SDS011;8369;48.030;11.598;2023-08-21T14:34:47;5.82;;;4.90;;
16512;SDS011;8369;48.030;11.598;2023-08-21T14:37:13;6.00;;;4.88;;
16512;SDS011;8369;48.030;11.598;2023-08-21T14:39:40;5.80;;;5.15;;
16512;SDS011;8369;48.030;11.598;2023-08-21T14:42:08;7.57;;;5.00;;
16512;SDS011;8369;48.030;11.598;2023-08-21T14:44:34;9.43;;;5.00;;
16512;SDS011;8369;48.030;11.598;2023-08-21T14:47:02;5.53;;;5.03;;
16512;SDS011;8369;48.030;11.598;2023-08-21T14:49:28;6.15;;;5.30;;
16512;SDS011;8369;48.030;11.598;2023-08-21T14:51:54;6.70;;;5.57;;
16512;SDS011;8369;48.030;11.598;2023-08-21T14:54:20;10.57;;;5.70;;
16512;SDS011;8369;48.030;11.598;2023-08-21T14:56:45;7.82;;;5.65;;
16512;SDS011;8369;48.030;11.598;2023-08-21T14:59:11;6.38;;;5.35;;
16512;SDS011;8369;48.030;11.598;2023-08-21T15:01:38;6.20;;;5.60;;
16512;SDS011;8369;48.030;11.598;2023-08-21T15:04:04;6.57;;;5.50;;
16512;SDS011;8369;48.030;11.598;2023-08-21T15:06:30;6.00;;;5.28;;
16512;SDS011;8369;48.030;11.598;2023-08-21T15:08:56;8.63;;;5.75;;
16512;SDS011;8369;48.030;11.598;2023-08-21T15:11:22;6.18;;;5.57;;
16512;SDS011;8369;48.030;11.598;2023-08-21T15:13:48;10.10;;;5.13;;
16512;SDS011;8369;48.030;11.598;2023-08-21T15:16:14;8.23;;;5.25;;
16512;SDS011;8369;48.030;11.598;2023-08-21T15:18:39;5.55;;;5.05;;
16512;SDS011;8369;48.030;11.598;2023-08-21T15:21:05;9.35;;;5.20;;
16512;SDS011;8369;48.030;11.598;2023-08-21T15:23:34;9.18;;;5.65;;
16512;SDS011;8369;48.030;11.598;2023-08-21T15:26:00;9.68;;;5.70;;
16512;SDS011;8369;48.030;11.598;2023-08-21T15:28:25;7.72;;;6.05;;
16512;SDS011;8369;48.030;11.598;2023-08-21T15:30:51;6.57;;;5.60;;
16512;SDS011;8369;48.030;11.598;2023-08-21T15:33:17;6.30;;;5.70;;
16512;SDS011;8369;48.030;11.598;2023-08-21T15:35:42;9.82;;;5.40;;
16512;SDS011;8369;48.030;11.598;2023-08-21T15:38:10;6.38;;;5.50;;
16512;SDS011;8369;48.030;11.598;2023-08-21T15:40:36;7.32;;;5.18;;
16512;SDS011;8369;48.030;11.598;2023-08-21T15:43:02;5.88;;;5.30;;
16512;SDS011;8369;48.030;11.598;2023-08-21T15:45:36;6.32;;;5.28;;
16512;SDS011;8369;48.030;11.598;2023-08-21T15:48:01;7.28;;;5.60;;
16512;SDS011;8369;48.030;11.598;2023-08-21T15:50:27;7.20;;;5.55;;
16512;SDS011;8369;48.030;11.598;2023-08-21T15:52:53;6.00;;;5.38;;
16512;SDS011;8369;48.030;11.598;2023-08-21T15:55:19;6.07;;;5.50;;
16512;SDS011;8369;48.030;11.598;2023-08-21T15:57:45;5.93;;;5.30;;
16512;SDS011;8369;48.030;11.598;2023-08-21T16:00:11;7.10;;;5.90;;